createdAt,value
2022-08-31T00:01:37.668Z,21.27
2022-08-31T00:04:05.870Z,21.15
2022-08-31T00:06:34.432Z,21.55
2022-08-31T00:09:04.421Z,21.08
2022-08-31T00:11:31.227Z,21.12
2022-08-31T00:14:00.559Z,21.23
2022-08-31T00:16:30.777Z,21.33
2022-08-31T00:18:57.778Z,21.06
2022-08-31T00:21:26.744Z,20.91
2022-08-31T00:23:55.201Z,21.08
2022-08-31T00:26:24.311Z,20.95
2022-08-31T00:28:51.550Z,21.11
2022-08-31T00:31:20.026Z,21.22
2022-08-31T00:33:47.145Z,20.64
2022-08-31T00:36:14.925Z,20.95
2022-08-31T00:38:42.332Z,20.89
2022-08-31T00:41:10.776Z,20.91
2022-08-31T00:43:44.828Z,21.03
2022-08-31T00:46:15.756Z,20.96
2022-08-31T00:48:46.011Z,20.75
2022-08-31T00:51:13.147Z,20.50
2022-08-31T00:53:50.808Z,20.48
2022-08-31T00:56:18.600Z,20.31
2022-08-31T00:58:48.851Z,20.49
2022-08-31T01:01:21.684Z,20.34
2022-08-31T01:03:48.531Z,20.13
2022-08-31T01:06:16.577Z,19.95
2022-08-31T01:08:44.494Z,20.02
2022-08-31T01:11:11.677Z,20.10
2022-08-31T01:13:38.480Z,20.13
2022-08-31T01:16:11.839Z,19.55
2022-08-31T01:18:42.567Z,19.65
2022-08-31T01:21:22.701Z,19.61
2022-08-31T01:23:53.663Z,19.51
2022-08-31T01:26:25.419Z,19.61
2022-08-31T01:28:59.378Z,19.49
2022-08-31T01:31:30.144Z,19.56
2022-08-31T01:33:58.204Z,19.55
2022-08-31T01:36:26.040Z,19.84
2022-08-31T01:38:54.783Z,19.64
2022-08-31T01:41:22.295Z,19.49
2022-08-31T01:43:49.025Z,19.53
2022-08-31T01:46:17.268Z,19.61
2022-08-31T01:48:45.520Z,19.38
2022-08-31T01:51:14.995Z,19.21
2022-08-31T01:53:45.693Z,19.30
2022-08-31T01:56:20.314Z,19.09
2022-08-31T01:58:48.889Z,19.05
2022-08-31T02:01:33.642Z,18.96
2022-08-31T02:04:03.714Z,19.05
2022-08-31T02:06:33.101Z,18.93
2022-08-31T02:09:00.404Z,18.90
2022-08-31T02:11:28.524Z,18.95
2022-08-31T02:13:55.762Z,19.07
2022-08-31T02:16:22.830Z,18.94
2022-08-31T02:18:50.639Z,19.00
2022-08-31T02:21:18.503Z,18.91
2022-08-31T02:23:46.222Z,18.69
2022-08-31T02:26:14.112Z,18.65
2022-08-31T02:28:42.911Z,18.87
2022-08-31T02:31:10.010Z,18.87
2022-08-31T02:33:37.232Z,18.80
2022-08-31T02:36:04.826Z,18.94
2022-08-31T02:38:34.411Z,18.97
2022-08-31T02:41:01.495Z,18.82
2022-08-31T02:43:28.290Z,18.61
2022-08-31T02:45:56.425Z,19.01
2022-08-31T02:48:23.412Z,18.96
2022-08-31T02:50:53.289Z,19.02
2022-08-31T02:53:22.314Z,18.82
2022-08-31T02:55:49.929Z,18.68
2022-08-31T02:58:21.932Z,18.52
2022-08-31T03:00:50.951Z,18.60
2022-08-31T03:03:20.693Z,18.74
2022-08-31T03:05:49.507Z,18.61
2022-08-31T03:08:16.821Z,18.62
2022-08-31T03:10:43.762Z,18.74
2022-08-31T03:13:12.228Z,18.93
2022-08-31T03:15:39.282Z,18.71
2022-08-31T03:18:06.818Z,18.65
2022-08-31T03:20:35.717Z,18.80
2022-08-31T03:23:03.621Z,18.72
2022-08-31T03:25:31.965Z,18.50
2022-08-31T03:27:58.619Z,18.63
2022-08-31T03:30:28.243Z,18.69
2022-08-31T03:33:00.993Z,18.65
2022-08-31T03:35:30.206Z,18.95
2022-08-31T03:37:58.335Z,18.65
2022-08-31T03:40:27.461Z,18.48
2022-08-31T03:42:54.412Z,18.62
2022-08-31T03:45:21.588Z,18.82
2022-08-31T03:47:49.430Z,18.51
2022-08-31T03:50:16.320Z,18.26
2022-08-31T03:52:43.277Z,18.47
2022-08-31T03:55:12.819Z,18.47
2022-08-31T03:57:39.538Z,18.33
2022-08-31T04:00:09.057Z,18.31
2022-08-31T04:02:38.130Z,18.55
2022-08-31T04:05:07.607Z,18.30
2022-08-31T04:07:42.580Z,18.41
2022-08-31T04:10:13.737Z,18.18
2022-08-31T04:12:41.074Z,18.17
2022-08-31T04:15:09.050Z,18.36
2022-08-31T04:17:35.973Z,18.23
2022-08-31T04:20:03.443Z,18.20
2022-08-31T04:22:30.047Z,18.06
2022-08-31T04:24:57.443Z,18.17
2022-08-31T04:27:27.032Z,18.40
2022-08-31T04:29:54.541Z,17.95
2022-08-31T04:32:26.254Z,18.08
2022-08-31T04:34:56.360Z,18.21
2022-08-31T04:37:23.677Z,18.22
2022-08-31T04:39:54.612Z,18.30
2022-08-31T04:42:22.762Z,17.97
2022-08-31T04:44:53.137Z,18.08
2022-08-31T04:47:19.887Z,18.21
2022-08-31T04:49:48.697Z,17.95
2022-08-31T04:52:15.701Z,18.03
2022-08-31T04:54:44.754Z,17.74
2022-08-31T04:57:11.650Z,18.05
2022-08-31T04:59:38.870Z,17.96
2022-08-31T05:02:06.993Z,17.88
2022-08-31T05:04:33.703Z,17.92
2022-08-31T05:07:00.634Z,18.05
2022-08-31T05:09:27.462Z,17.90
2022-08-31T05:11:57.282Z,17.75
2022-08-31T05:14:25.312Z,17.89
2022-08-31T05:16:52.787Z,17.86
2022-08-31T05:19:23.719Z,17.84
2022-08-31T05:21:50.592Z,17.96
2022-08-31T05:24:19.372Z,17.83
2022-08-31T05:26:48.962Z,17.77
2022-08-31T05:29:17.650Z,17.84
2022-08-31T05:31:49.066Z,17.79
2022-08-31T05:34:23.061Z,17.94
2022-08-31T05:36:52.669Z,18.07
2022-08-31T05:39:19.712Z,18.06
2022-08-31T05:41:48.408Z,17.83
2022-08-31T05:44:16.725Z,18.24
2022-08-31T05:46:52.243Z,18.11
2022-08-31T05:49:27.741Z,18.02
2022-08-31T05:51:55.384Z,18.34
2022-08-31T05:54:23.078Z,18.49
2022-08-31T05:56:52.218Z,19.08
2022-08-31T05:59:21.374Z,19.18
2022-08-31T06:01:48.276Z,19.44
2022-08-31T06:04:15.094Z,19.80
2022-08-31T06:06:43.506Z,20.10
2022-08-31T06:09:10.408Z,20.35
2022-08-31T06:11:38.549Z,20.68
2022-08-31T06:14:06.070Z,20.34
2022-08-31T06:16:36.435Z,20.08
2022-08-31T06:19:07.496Z,20.32
2022-08-31T06:21:37.735Z,20.48
2022-08-31T06:24:11.029Z,20.04
2022-08-31T06:26:39.618Z,20.41
2022-08-31T06:29:07.470Z,20.59
2022-08-31T06:31:37.258Z,20.46
2022-08-31T06:34:04.966Z,20.86
2022-08-31T06:36:33.621Z,21.15
2022-08-31T06:39:03.729Z,21.80
2022-08-31T06:41:36.638Z,21.61
2022-08-31T06:44:06.895Z,21.69
2022-08-31T06:46:38.690Z,22.18
2022-08-31T06:52:08.440Z,22.64
2022-08-31T06:54:40.319Z,22.31
2022-08-31T06:57:14.016Z,22.66
2022-08-31T06:59:46.035Z,22.56
2022-08-31T07:02:12.956Z,23.15
2022-08-31T07:04:43.335Z,23.28
2022-08-31T07:07:17.218Z,23.39
2022-08-31T07:13:06.206Z,23.48
2022-08-31T07:15:36.127Z,23.98
2022-08-31T07:18:04.391Z,22.84
2022-08-31T07:20:49.591Z,23.24
2022-08-31T07:23:16.889Z,24.05
2022-08-31T07:25:43.510Z,24.12
2022-08-31T07:28:11.508Z,24.32
2022-08-31T07:30:38.295Z,24.21
2022-08-31T07:33:04.978Z,24.37
2022-08-31T07:35:31.672Z,25.44
2022-08-31T07:37:58.652Z,25.64
2022-08-31T07:40:26.579Z,25.25
2022-08-31T07:42:53.524Z,25.14
2022-08-31T07:45:29.166Z,25.63
2022-08-31T07:47:58.488Z,25.39
2022-08-31T07:50:28.078Z,25.47
2022-08-31T07:52:55.779Z,25.60
2022-08-31T07:55:24.527Z,25.90
2022-08-31T07:57:52.422Z,25.75
2022-08-31T08:00:24.605Z,25.28
2022-08-31T08:02:53.486Z,25.15
2022-08-31T08:05:26.888Z,25.86
2022-08-31T08:07:57.977Z,25.69
2022-08-31T08:10:24.733Z,26.07
2022-08-31T08:12:55.626Z,25.22
2022-08-31T08:15:25.113Z,24.60
2022-08-31T08:17:51.937Z,24.06
2022-08-31T08:20:34.219Z,24.98
2022-08-31T08:23:08.176Z,24.24
2022-08-31T08:25:37.837Z,24.02
2022-08-31T08:28:22.577Z,23.78
2022-08-31T08:30:52.848Z,23.89
2022-08-31T08:33:19.606Z,23.57
2022-08-31T08:35:53.169Z,23.79
2022-08-31T08:38:19.963Z,24.10
2022-08-31T08:40:46.989Z,24.75
2022-08-31T08:43:16.626Z,24.24
2022-08-31T08:45:44.489Z,24.44
2022-08-31T08:48:16.281Z,25.08
2022-08-31T08:50:44.270Z,25.90
2022-08-31T08:53:13.901Z,25.43
2022-08-31T08:55:42.705Z,24.65
2022-08-31T08:58:13.467Z,24.85
2022-08-31T09:00:41.299Z,24.90
2022-08-31T09:03:19.570Z,24.60
2022-08-31T09:05:59.238Z,24.93
2022-08-31T09:08:49.306Z,25.19
2022-08-31T09:11:24.360Z,24.95
2022-08-31T09:14:07.131Z,25.51
2022-08-31T09:16:45.472Z,25.70
2022-08-31T09:19:20.924Z,26.54
2022-08-31T09:21:50.444Z,26.34
2022-08-31T09:24:19.513Z,26.23
2022-08-31T09:26:53.779Z,25.56
2022-08-31T09:29:21.853Z,26.62
2022-08-31T09:31:48.461Z,26.70
2022-08-31T09:34:28.038Z,25.78
2022-08-31T09:37:11.815Z,25.48
2022-08-31T09:39:38.682Z,25.64
2022-08-31T09:42:17.662Z,25.43
2022-08-31T09:47:39.450Z,25.75
2022-08-31T09:50:07.937Z,26.17
2022-08-31T09:52:37.087Z,26.28
2022-08-31T09:55:04.303Z,25.48
2022-08-31T09:57:44.691Z,25.26
2022-08-31T10:00:13.679Z,25.70
2022-08-31T10:02:40.323Z,26.34
2022-08-31T10:05:29.665Z,25.66
2022-08-31T10:08:02.582Z,25.85
2022-08-31T10:10:33.738Z,25.60
2022-08-31T10:13:05.474Z,24.97
2022-08-31T10:15:38.746Z,25.60
2022-08-31T10:18:12.464Z,25.25
2022-08-31T10:20:46.534Z,24.78
2022-08-31T10:23:22.579Z,24.95
2022-08-31T10:25:55.929Z,25.02
2022-08-31T10:28:31.128Z,24.91
2022-08-31T10:31:02.836Z,25.37
2022-08-31T10:33:38.436Z,25.09
2022-08-31T10:36:07.456Z,25.57
2022-08-31T10:38:37.860Z,25.21
2022-08-31T10:41:12.460Z,24.94
2022-08-31T10:43:48.484Z,25.59
2022-08-31T10:46:16.428Z,25.77
2022-08-31T10:48:46.210Z,25.49
2022-08-31T10:51:19.445Z,25.59
2022-08-31T10:53:58.731Z,25.70
2022-08-31T10:56:36.688Z,26.07
2022-08-31T10:59:13.830Z,26.12
2022-08-31T11:01:50.761Z,26.07
2022-08-31T11:04:43.052Z,26.79
2022-08-31T11:07:21.935Z,26.10
2022-08-31T11:09:56.505Z,26.21
2022-08-31T11:12:28.896Z,25.58
2022-08-31T11:15:34.163Z,25.85
2022-08-31T11:18:36.104Z,25.76
2022-08-31T11:21:20.930Z,26.08
2022-08-31T11:24:16.099Z,26.46
2022-08-31T11:26:54.924Z,26.37
2022-08-31T11:29:35.818Z,26.86
2022-08-31T11:32:11.654Z,26.99
2022-08-31T11:34:47.780Z,26.80
2022-08-31T11:37:53.110Z,26.35
2022-08-31T11:40:59.699Z,26.30
2022-08-31T11:43:47.408Z,26.20
2022-08-31T11:46:45.658Z,26.14
2022-08-31T11:49:39.241Z,26.58
2022-08-31T11:52:07.611Z,26.30
2022-08-31T11:54:58.388Z,27.01
2022-08-31T11:57:52.491Z,26.99
2022-08-31T12:00:20.773Z,27.38
2022-08-31T12:03:04.653Z,26.86
2022-08-31T12:05:45.874Z,27.95
2022-08-31T12:08:12.739Z,27.99
2022-08-31T12:10:52.119Z,28.50
2022-08-31T12:13:45.113Z,28.16
2022-08-31T12:16:47.780Z,27.16
2022-08-31T12:19:29.669Z,27.12
2022-08-31T12:22:04.363Z,27.52
2022-08-31T12:24:45.696Z,27.17
2022-08-31T12:27:31.019Z,27.48
2022-08-31T12:30:14.917Z,27.05
2022-08-31T12:32:45.398Z,26.89
2022-08-31T12:35:19.498Z,27.56
2022-08-31T12:37:59.191Z,26.42
2022-08-31T12:40:27.928Z,27.07
2022-08-31T12:43:05.621Z,26.68
2022-08-31T12:45:55.018Z,27.51
2022-08-31T12:48:38.416Z,26.97
2022-08-31T12:51:18.927Z,27.12
2022-08-31T12:54:01.531Z,26.38
2022-08-31T12:56:37.991Z,26.58
2022-08-31T12:59:36.302Z,25.99
2022-08-31T13:02:13.476Z,26.83
2022-08-31T13:04:44.837Z,26.35
2022-08-31T13:07:19.000Z,26.43
2022-08-31T13:09:46.792Z,26.56
2022-08-31T13:12:23.578Z,26.80
2022-08-31T13:14:50.278Z,26.53
2022-08-31T13:17:19.170Z,26.72
2022-08-31T13:19:49.831Z,27.35
2022-08-31T13:22:27.514Z,27.22
2022-08-31T13:24:56.355Z,27.12
2022-08-31T13:27:26.128Z,27.35
2022-08-31T13:29:55.163Z,28.13
2022-08-31T13:32:31.790Z,28.10
2022-08-31T13:35:03.473Z,27.88
2022-08-31T13:37:38.825Z,27.81
2022-08-31T13:40:09.892Z,27.96
2022-08-31T13:42:39.787Z,27.51
2022-08-31T13:45:17.998Z,26.96
2022-08-31T13:47:57.626Z,26.90
2022-08-31T13:50:29.993Z,27.34
2022-08-31T13:56:19.037Z,26.55
2022-08-31T13:58:46.257Z,26.47
2022-08-31T14:01:20.500Z,26.44
2022-08-31T14:03:53.223Z,26.94
2022-08-31T14:06:22.393Z,26.91
2022-08-31T14:08:53.319Z,26.90
2022-08-31T14:11:21.132Z,26.85
2022-08-31T14:13:49.972Z,26.90
2022-08-31T14:16:30.809Z,27.45
2022-08-31T14:18:57.498Z,27.27
2022-08-31T14:21:29.890Z,26.83
2022-08-31T14:23:59.793Z,26.53
2022-08-31T14:26:31.791Z,26.62
2022-08-31T14:29:01.313Z,26.93
2022-08-31T14:31:33.170Z,26.50
2022-08-31T14:34:43.788Z,27.16
2022-08-31T14:37:12.100Z,27.09
2022-08-31T14:39:42.605Z,27.75
2022-08-31T14:42:17.554Z,27.16
2022-08-31T14:44:48.531Z,27.76
2022-08-31T14:47:15.266Z,28.06
2022-08-31T14:49:42.113Z,27.50
2022-08-31T14:52:08.755Z,27.44
2022-08-31T14:54:36.023Z,27.27
2022-08-31T14:57:09.168Z,26.98
2022-08-31T14:59:41.330Z,28.07
2022-08-31T15:02:09.554Z,28.33
2022-08-31T15:04:42.784Z,27.95
2022-08-31T15:07:13.949Z,27.71
2022-08-31T15:09:40.718Z,26.99
2022-08-31T15:12:10.164Z,26.94
2022-08-31T15:14:46.745Z,27.01
2022-08-31T15:17:19.151Z,26.58
2022-08-31T15:19:48.510Z,26.03
2022-08-31T15:22:20.999Z,26.26
2022-08-31T15:24:52.095Z,26.03
2022-08-31T15:27:21.212Z,26.15
2022-08-31T15:29:51.555Z,25.89
2022-08-31T15:32:18.831Z,25.87
2022-08-31T15:34:47.780Z,26.49
2022-08-31T15:37:15.327Z,26.38
2022-08-31T15:39:42.240Z,26.22
2022-08-31T15:42:10.658Z,26.42
2022-08-31T15:44:43.294Z,26.63
2022-08-31T15:47:11.494Z,26.27
2022-08-31T15:49:38.581Z,25.94
2022-08-31T15:52:07.565Z,26.32
2022-08-31T15:54:36.044Z,26.06
2022-08-31T15:57:05.368Z,26.32
2022-08-31T15:59:33.260Z,26.28
2022-08-31T16:02:02.201Z,26.11
2022-08-31T16:04:29.460Z,26.01
2022-08-31T16:06:58.480Z,26.00
2022-08-31T16:09:25.324Z,25.95
2022-08-31T16:11:53.584Z,25.82
2022-08-31T16:14:20.496Z,25.84
2022-08-31T16:16:51.067Z,25.56
2022-08-31T16:19:34.646Z,25.65
2022-08-31T16:22:05.926Z,25.45
2022-08-31T16:24:33.337Z,25.89
2022-08-31T16:27:00.556Z,25.88
2022-08-31T16:29:27.946Z,25.46
2022-08-31T16:31:54.694Z,25.80
2022-08-31T16:34:23.046Z,25.65
2022-08-31T16:36:53.203Z,25.77
2022-08-31T16:39:27.508Z,25.82
2022-08-31T16:41:55.070Z,25.71
2022-08-31T16:44:28.402Z,25.85
2022-08-31T16:47:04.543Z,26.02
2022-08-31T16:49:45.057Z,25.58
2022-08-31T16:52:15.124Z,25.50
2022-08-31T16:54:44.897Z,25.42
2022-08-31T16:57:15.131Z,25.06
2022-08-31T16:59:45.477Z,24.74
2022-08-31T17:02:14.254Z,25.11
2022-08-31T17:04:58.873Z,24.78
2022-08-31T17:07:25.547Z,25.13
2022-08-31T17:09:55.661Z,24.89
2022-08-31T17:12:22.482Z,24.84
2022-08-31T17:14:50.482Z,24.83
2022-08-31T17:17:19.347Z,24.47
2022-08-31T17:19:48.341Z,24.83
2022-08-31T17:22:22.163Z,24.78
2022-08-31T17:24:49.747Z,24.71
2022-08-31T17:27:19.159Z,24.88
2022-08-31T17:29:51.025Z,24.71
2022-08-31T17:32:25.201Z,24.07
2022-08-31T17:34:54.113Z,24.20
2022-08-31T17:37:22.967Z,23.80
2022-08-31T17:39:50.013Z,24.00
2022-08-31T17:42:16.996Z,24.38
2022-08-31T17:44:46.831Z,24.06
2022-08-31T17:47:14.522Z,23.95
2022-08-31T17:49:45.877Z,24.06
2022-08-31T17:52:15.069Z,23.96
2022-08-31T17:54:42.823Z,23.80
2022-08-31T17:57:12.835Z,23.88
2022-08-31T17:59:41.551Z,23.88
2022-08-31T18:02:12.347Z,23.97
2022-08-31T18:04:40.922Z,23.50
2022-08-31T18:07:11.304Z,23.81
2022-08-31T18:09:42.666Z,23.55
2022-08-31T18:12:09.945Z,23.43
2022-08-31T18:14:41.443Z,23.24
2022-08-31T18:17:13.105Z,23.35
2022-08-31T18:19:46.968Z,23.27
2022-08-31T18:22:13.733Z,23.16
2022-08-31T18:24:46.875Z,23.27
2022-08-31T18:27:14.488Z,23.09
2022-08-31T18:29:41.393Z,23.02
2022-08-31T18:32:08.425Z,22.95
2022-08-31T18:34:37.986Z,23.04
2022-08-31T18:37:04.838Z,23.10
2022-08-31T18:39:51.678Z,23.04
2022-08-31T18:42:22.629Z,23.10
2022-08-31T18:44:51.063Z,22.68
2022-08-31T18:47:18.009Z,22.62
2022-08-31T18:49:44.976Z,22.72
2022-08-31T18:52:14.808Z,23.18
2022-08-31T18:54:42.729Z,22.85
2022-08-31T18:57:09.537Z,23.00
2022-08-31T18:59:39.712Z,22.67
2022-08-31T19:02:08.047Z,22.97
2022-08-31T19:04:37.709Z,23.10
2022-08-31T19:07:06.361Z,22.86
2022-08-31T19:09:33.584Z,23.11
2022-08-31T19:12:00.643Z,22.97
2022-08-31T19:14:27.856Z,22.70
2022-08-31T19:17:01.676Z,23.04
2022-08-31T19:19:32.534Z,22.65
2022-08-31T19:21:59.253Z,22.91
2022-08-31T19:24:25.996Z,22.62
2022-08-31T19:26:55.637Z,22.52
2022-08-31T19:29:31.038Z,22.74
2022-08-31T19:32:05.016Z,22.59
2022-08-31T19:34:39.443Z,22.67
2022-08-31T19:37:07.870Z,22.63
2022-08-31T19:39:37.217Z,22.35
2022-08-31T19:42:06.892Z,22.35
2022-08-31T19:47:25.019Z,22.09
2022-08-31T19:49:52.871Z,22.20
2022-08-31T19:52:20.479Z,22.22
2022-08-31T19:54:49.533Z,22.27
2022-08-31T19:57:16.234Z,22.06
2022-08-31T19:59:48.934Z,22.33
2022-08-31T20:02:16.951Z,22.35
2022-08-31T20:04:45.970Z,21.90
2022-08-31T20:07:14.553Z,22.35
2022-08-31T20:09:46.979Z,22.03
2022-08-31T20:12:15.298Z,22.46
2022-08-31T20:14:41.843Z,22.15
2022-08-31T20:17:11.246Z,22.21
2022-08-31T20:19:38.213Z,22.09
2022-08-31T20:22:07.106Z,21.98
2022-08-31T20:24:38.410Z,22.01
2022-08-31T20:27:13.709Z,21.96
2022-08-31T20:29:41.580Z,21.82
2022-08-31T20:32:08.285Z,21.92
2022-08-31T20:34:36.068Z,22.06
2022-08-31T20:37:02.836Z,21.78
2022-08-31T20:39:32.542Z,21.67
2022-08-31T20:41:59.827Z,21.61
2022-08-31T20:44:29.161Z,21.45
2022-08-31T20:46:58.449Z,21.89
2022-08-31T20:49:25.691Z,21.80
2022-08-31T20:51:54.278Z,21.70
2022-08-31T20:54:21.721Z,21.70
2022-08-31T20:56:50.391Z,21.56
2022-08-31T20:59:18.129Z,21.64
2022-08-31T21:01:45.659Z,21.50
2022-08-31T21:04:12.660Z,21.59
2022-08-31T21:06:42.246Z,21.58
2022-08-31T21:09:08.875Z,21.73
2022-08-31T21:11:35.722Z,21.46
2022-08-31T21:14:05.378Z,21.59
2022-08-31T21:16:34.232Z,21.36
2022-08-31T21:19:03.437Z,21.28
2022-08-31T21:21:30.612Z,21.29
2022-08-31T21:23:58.461Z,21.30
2022-08-31T21:26:28.089Z,21.20
2022-08-31T21:28:57.029Z,21.14
2022-08-31T21:31:29.205Z,21.05
2022-08-31T21:33:59.830Z,20.93
2022-08-31T21:36:27.367Z,20.96
2022-08-31T21:38:55.335Z,20.92
2022-08-31T21:41:24.124Z,20.77
2022-08-31T21:43:52.209Z,20.88
2022-08-31T21:46:21.123Z,20.95
2022-08-31T21:48:54.152Z,21.00
2022-08-31T21:51:23.730Z,20.98
2022-08-31T21:53:55.213Z,21.06
2022-08-31T21:56:24.718Z,20.99
2022-08-31T21:58:53.079Z,21.06
2022-08-31T22:01:20.493Z,21.16
2022-08-31T22:03:50.197Z,20.72
2022-08-31T22:06:19.075Z,20.99
2022-08-31T22:08:51.261Z,21.07
2022-08-31T22:11:20.453Z,20.77
2022-08-31T22:13:52.344Z,20.78
2022-08-31T22:16:19.955Z,20.92
2022-08-31T22:19:07.748Z,20.66
2022-08-31T22:21:35.347Z,20.76
2022-08-31T22:24:05.072Z,20.85
2022-08-31T22:26:37.914Z,20.84
2022-08-31T22:29:06.548Z,20.66
2022-08-31T22:31:36.254Z,20.31
2022-08-31T22:34:06.211Z,20.30
2022-08-31T22:36:33.576Z,20.27
2022-08-31T22:39:00.769Z,20.24
2022-08-31T22:41:28.328Z,20.14
2022-08-31T22:43:56.129Z,20.12
2022-08-31T22:46:23.411Z,20.34
2022-08-31T22:48:53.323Z,20.18
2022-08-31T22:51:21.498Z,20.02
2022-08-31T22:53:48.282Z,20.06
2022-08-31T22:56:17.555Z,20.21
2022-08-31T22:58:46.967Z,20.00
2022-08-31T23:01:19.158Z,19.96
2022-08-31T23:03:49.982Z,20.14
2022-08-31T23:06:17.055Z,20.16
2022-08-31T23:08:46.557Z,19.90
2022-08-31T23:11:16.353Z,19.89
2022-08-31T23:13:43.426Z,20.06
2022-08-31T23:16:10.017Z,20.08
2022-08-31T23:18:40.668Z,19.97
2022-08-31T23:21:07.609Z,19.81
2022-08-31T23:23:34.387Z,20.04
2022-08-31T23:26:08.766Z,20.10
2022-08-31T23:28:37.302Z,20.27
2022-08-31T23:31:04.992Z,20.30
2022-08-31T23:33:31.895Z,20.37
2022-08-31T23:35:58.512Z,20.18
2022-08-31T23:38:25.403Z,20.07
2022-08-31T23:40:53.337Z,20.21
2022-08-31T23:43:21.341Z,20.07
2022-08-31T23:45:49.448Z,19.91
2022-08-31T23:48:16.550Z,20.13
2022-08-31T23:50:43.877Z,20.02
2022-08-31T23:53:11.400Z,20.13
2022-08-31T23:55:42.612Z,20.15
2022-08-31T23:58:09.539Z,20.09
